21:37
Airports
History
Links
Donate
Help keep this website running!
PayPal
Bitcoin
This page is community maintained. The information is intended for PC simulator navigation or reference.
Always use approved charts for navigation.
OR24
Barrett Field
Barrett Field (OR24)
Athena, Oregon, United States (97813)
4
Lat/Lng:45° 49' 16.48" N / 118° 29' 52.89" W
45.821244 / -118.498025
Elevation:1738'ft / 530mMSL
ID / ICAO:OR24
Runways:1
Longest:16-34
Grass 467m / 1,531ft
Nearby Weather20:53 GMT 2018-02-20
Nearby weather at KPDT, Eastern Oregon Rgnl At Pendlet located 18.7 nautical miles from OR24
Altimeter: 30.15
Visibility: 10.0 statute miles
Wind: 5 knots (from VRB°)
Temp: 0°c / 32°f
Humidity: %

METAR: KPDT 202053Z VRB05KT 10SM SCT041 00/M11 A3015 RMK AO2 SLP224 T00001106 58009

(Powered by phpweather)
Nearby VORs <50NM
Nearby NDBs
Runway 16 / 34
Dimensions:466.7 x 18.3m 1531' x 60'ft
Surface:Grass
Runway 16 [A]Runway 34 [B]
Heading:178°TH 358°TH
Lat:
Lng:
45° 49' 24.13"N
118° 29' 53.08"W
45° 49' 8.83"N
118° 29' 52.7"W
User Notes and Comments
45° 49' 16.48" N / 118° 29' 52.89" W
Distance To
Airport ID:
Nearby Airports
4 Oregon Sky Ranch 6.0 NM
4S8 NE 48°
4 Rothrock Field 7.8 NM
OG04 SW 229°
4 Kings 8.1 NM
9OR4 NNE 17°
4 Page 14.8 NM
67WA NNE 24°
4 Page 14.8 NM
9W2 NNE 24°
(U) Martin Field 16.1 NM
S95 NNE 13°
(C) Eastern Oregon Rgnl At Pendlet 18.7 NM
KPDT ( WX ) WSW 242°
VFR Chart
Flight Planning at SkyVector.com